Time;durP1;ratioP1;P1;durP2;ratioP2;P2;SDS_P1;SDS_P2;PMS_P1;PMS_P2;Temp;Humidity;BMP_temperature;BMP_pressure;BME280_temperature;BME280_humidity;BME280_pressure;Samples;Min_cycle;Max_cycle;Signal;HPM_P1;HPM_P2
2022/09/24 00:00:30;;;;;;;7.22;6.70;;;;;;;;;;5048425;28;24423;-48
2022/09/24 00:02:55;;;;;;;6.80;6.30;;;;;;;;;;5056086;28;24612;-47
2022/09/24 00:05:21;;;;;;;7.97;7.38;;;;;;;;;;5062920;28;24487;-46
2022/09/24 00:07:46;;;;;;;7.00;6.50;;;;;;;;;;5065953;28;24418;-46
2022/09/24 00:10:11;;;;;;;7.10;6.60;;;;;;;;;;5064733;28;24709;-47
2022/09/24 00:12:36;;;;;;;7.30;6.78;;;;;;;;;;5062063;28;24761;-46
2022/09/24 00:15:02;;;;;;;7.40;6.90;;;;;;;;;;5066234;28;24423;-45
2022/09/24 00:17:27;;;;;;;6.57;6.17;;;;;;;;;;5064139;28;24941;-46
2022/09/24 00:19:52;;;;;;;6.80;6.40;;;;;;;;;;5046161;28;24411;-44
2022/09/24 00:22:17;;;;;;;7.60;7.10;;;;;;;;;;5052091;28;25023;-45
2022/09/24 00:27:26;;;;;;;5.85;5.45;;;;;;;;;;5062070;28;25053;-46
2022/09/24 00:29:51;;;;;;;6.70;6.20;;;;;;;;;;5055050;28;24422;-46
2022/09/24 00:32:16;;;;;;;7.35;6.75;;;;;;;;;;5066516;28;24411;-46
2022/09/24 00:34:42;;;;;;;6.40;6.00;;;;;;;;;;5056588;28;24489;-47
2022/09/24 00:37:07;;;;;;;7.13;6.57;;;;;;;;;;5053711;28;24765;-46
2022/09/24 00:39:32;;;;;;;6.87;6.37;;;;;;;;;;5062614;28;24544;-46
2022/09/24 00:41:57;;;;;;;7.00;6.50;;;;;;;;;;5059715;28;24422;-52
2022/09/24 00:44:41;;;;;;;6.70;6.20;;;;;;;;;;5059376;28;24862;-46
2022/09/24 00:47:26;;;;;;;7.27;6.77;;;;;;;;;;5055927;28;24575;-46
2022/09/24 00:49:52;;;;;;;6.38;5.97;;;;;;;;;;5065364;28;24518;-47
2022/09/24 00:52:18;;;;;;;6.53;6.13;;;;;;;;;;5063883;28;25011;-47
2022/09/24 00:54:44;;;;;;;6.60;6.10;;;;;;;;;;5062478;28;24514;-47
2022/09/24 00:57:10;;;;;;;5.70;5.30;;;;;;;;;;5049701;28;24533;-47
2022/09/24 00:59:35;;;;;;;6.43;5.93;;;;;;;;;;5056715;28;24432;-47
2022/09/24 01:02:02;;;;;;;6.53;6.07;;;;;;;;;;5045405;28;24555;-47
2022/09/24 01:04:27;;;;;;;6.20;5.70;;;;;;;;;;5066376;28;24422;-47
2022/09/24 01:06:52;;;;;;;7.80;7.20;;;;;;;;;;5061238;28;25226;-47
2022/09/24 01:09:18;;;;;;;6.80;6.30;;;;;;;;;;5046793;28;24496;-46
2022/09/24 01:12:02;;;;;;;6.47;6.07;;;;;;;;;;5056845;28;24434;-47
2022/09/24 01:14:32;;;;;;;6.53;6.03;;;;;;;;;;5061452;28;24551;-47
2022/09/24 01:17:07;;;;;;;6.60;6.20;;;;;;;;;;5052667;28;24431;-47
2022/09/24 01:19:51;;;;;;;6.50;6.10;;;;;;;;;;5047733;28;25285;-47
2022/09/24 01:22:25;;;;;;;6.80;6.30;;;;;;;;;;5054947;28;24855;-47
2022/09/24 01:24:59;;;;;;;6.95;6.40;;;;;;;;;;5065614;28;24431;-48
2022/09/24 01:27:40;;;;;;;7.00;6.40;;;;;;;;;;5059192;28;24562;-47
2022/09/24 01:30:10;;;;;;;7.20;6.70;;;;;;;;;;5048894;28;24434;-48
2022/09/24 01:32:39;;;;;;;6.85;6.35;;;;;;;;;;5065680;28;25008;-48
2022/09/24 01:35:14;;;;;;;7.20;6.70;;;;;;;;;;5064962;28;24593;-47
2022/09/24 01:37:41;;;;;;;7.80;7.20;;;;;;;;;;5051612;28;24510;-47
2022/09/24 01:40:08;;;;;;;7.60;7.10;;;;;;;;;;5063425;28;24817;-47
2022/09/24 01:42:33;;;;;;;6.70;6.30;;;;;;;;;;5065962;28;24504;-47
2022/09/24 01:45:00;;;;;;;6.50;6.10;;;;;;;;;;5064118;28;24542;-46
2022/09/24 01:47:29;;;;;;;6.40;5.90;;;;;;;;;;5054471;28;25240;-47
2022/09/24 01:49:54;;;;;;;6.53;6.10;;;;;;;;;;5047818;28;24406;-47
2022/09/24 01:52:21;;;;;;;7.05;6.45;;;;;;;;;;5065180;28;24419;-47
2022/09/24 01:54:50;;;;;;;7.40;6.90;;;;;;;;;;5064861;28;24419;-48
2022/09/24 01:57:21;;;;;;;6.85;6.35;;;;;;;;;;5051818;28;24427;-47
2022/09/24 01:59:56;;;;;;;6.10;5.70;;;;;;;;;;5050457;28;24877;-47
2022/09/24 02:02:27;;;;;;;6.97;6.47;;;;;;;;;;5063137;28;24426;-46
2022/09/24 02:04:56;;;;;;;6.60;6.15;;;;;;;;;;5066126;28;24442;-46
2022/09/24 02:07:33;;;;;;;6.28;5.78;;;;;;;;;;5056490;28;24461;-48
2022/09/24 02:09:58;;;;;;;7.15;6.65;;;;;;;;;;5050894;28;24510;-46
2022/09/24 02:12:28;;;;;;;6.40;5.90;;;;;;;;;;5064509;28;24445;-47
2022/09/24 02:14:59;;;;;;;6.10;5.70;;;;;;;;;;5068565;28;24415;-47
2022/09/24 02:17:26;;;;;;;6.63;6.13;;;;;;;;;;5064968;28;24431;-48
2022/09/24 02:19:53;;;;;;;6.82;6.32;;;;;;;;;;5065095;28;25057;-48
2022/09/24 02:22:18;;;;;;;6.00;5.60;;;;;;;;;;5058757;28;24603;-47
2022/09/24 02:24:45;;;;;;;7.23;6.73;;;;;;;;;;5067889;28;24599;-47
2022/09/24 02:27:10;;;;;;;7.20;6.70;;;;;;;;;;5065121;28;24423;-47
2022/09/24 02:29:35;;;;;;;6.73;6.33;;;;;;;;;;5062131;28;24433;-47
2022/09/24 02:32:02;;;;;;;7.63;7.10;;;;;;;;;;5067321;28;24419;-47
2022/09/24 02:34:33;;;;;;;7.63;7.13;;;;;;;;;;5066515;28;24419;-47
2022/09/24 02:36:59;;;;;;;7.28;6.68;;;;;;;;;;5066002;28;24477;-47
2022/09/24 02:39:25;;;;;;;6.95;6.45;;;;;;;;;;5067880;28;24410;-47
2022/09/24 02:41:50;;;;;;;6.67;6.27;;;;;;;;;;5068538;28;24785;-48
2022/09/24 02:44:16;;;;;;;7.10;6.50;;;;;;;;;;5061964;28;24437;-47
2022/09/24 02:46:42;;;;;;;7.13;6.63;;;;;;;;;;5052359;28;24434;-47
2022/09/24 02:49:10;;;;;;;6.72;6.32;;;;;;;;;;5065648;28;24576;-46
2022/09/24 02:51:35;;;;;;;7.57;7.03;;;;;;;;;;5060409;28;24469;-47
2022/09/24 02:54:00;;;;;;;7.13;6.63;;;;;;;;;;5048475;28;24419;-47
2022/09/24 02:56:26;;;;;;;7.20;6.70;;;;;;;;;;5063047;28;24426;-48
2022/09/24 02:58:52;;;;;;;7.80;7.20;;;;;;;;;;5067559;28;24975;-47
2022/09/24 03:01:17;;;;;;;8.03;7.43;;;;;;;;;;5057024;28;24430;-47
2022/09/24 03:03:42;;;;;;;7.60;7.10;;;;;;;;;;5067685;28;24413;-47
2022/09/24 03:06:07;;;;;;;7.25;6.75;;;;;;;;;;5063367;28;24510;-47
2022/09/24 03:08:34;;;;;;;7.90;7.30;;;;;;;;;;5066492;28;25018;-47
2022/09/24 03:10:59;;;;;;;8.50;7.80;;;;;;;;;;5066366;28;24529;-47
2022/09/24 03:13:24;;;;;;;7.57;7.00;;;;;;;;;;5054354;28;24972;-46
2022/09/24 03:15:50;;;;;;;7.70;7.20;;;;;;;;;;5066292;28;24992;-47
2022/09/24 03:18:15;;;;;;;8.47;7.87;;;;;;;;;;5056645;28;24430;-47
2022/09/24 03:20:40;;;;;;;8.40;7.80;;;;;;;;;;5066301;28;24419;-47
2022/09/24 03:23:05;;;;;;;7.70;7.20;;;;;;;;;;5050567;28;24522;-47
2022/09/24 03:25:30;;;;;;;7.45;6.95;;;;;;;;;;5068298;28;24402;-47
2022/09/24 03:27:55;;;;;;;7.72;7.22;;;;;;;;;;5064699;28;24435;-47
2022/09/24 03:33:04;;;;;;;7.50;7.00;;;;;;;;;;5054568;28;24417;-47
2022/09/24 03:35:30;;;;;;;7.20;6.70;;;;;;;;;;5066677;28;24431;-47
2022/09/24 03:37:55;;;;;;;8.00;7.40;;;;;;;;;;5062179;28;24488;-47
2022/09/24 03:40:20;;;;;;;7.43;6.93;;;;;;;;;;5066165;28;24928;-48
2022/09/24 03:42:45;;;;;;;7.30;6.80;;;;;;;;;;5064790;28;24454;-48
2022/09/24 03:45:10;;;;;;;7.50;7.00;;;;;;;;;;5061853;28;24477;-47
2022/09/24 03:47:36;;;;;;;7.97;7.37;;;;;;;;;;5053372;28;25011;-47
2022/09/24 03:50:01;;;;;;;7.80;7.10;;;;;;;;;;5049597;28;24469;-47
2022/09/24 03:52:27;;;;;;;7.73;7.13;;;;;;;;;;5061559;28;24430;-47
2022/09/24 03:54:52;;;;;;;8.10;7.60;;;;;;;;;;5066033;28;25042;-47
2022/09/24 03:57:17;;;;;;;7.57;7.07;;;;;;;;;;5051894;28;24806;-47
2022/09/24 03:59:43;;;;;;;8.10;7.60;;;;;;;;;;5062127;28;24414;-48
2022/09/24 04:02:08;;;;;;;7.37;6.87;;;;;;;;;;5065711;28;24789;-47
2022/09/24 04:04:33;;;;;;;8.30;7.70;;;;;;;;;;5060809;28;24962;-48
2022/09/24 04:06:58;;;;;;;7.97;7.28;;;;;;;;;;5066528;28;24426;-48
2022/09/24 04:09:23;;;;;;;7.27;6.77;;;;;;;;;;5058818;28;24828;-48
2022/09/24 04:11:51;;;;;;;7.57;7.03;;;;;;;;;;5062843;28;25048;-47
2022/09/24 04:14:16;;;;;;;8.10;7.60;;;;;;;;;;5062190;28;24957;-47
2022/09/24 04:16:41;;;;;;;8.00;7.40;;;;;;;;;;5063748;28;24437;-47
2022/09/24 04:19:06;;;;;;;7.70;7.20;;;;;;;;;;5064161;28;24805;-46
2022/09/24 04:21:32;;;;;;;7.70;7.20;;;;;;;;;;5065661;28;24415;-46
2022/09/24 04:23:57;;;;;;;7.10;6.60;;;;;;;;;;5063761;28;24991;-47
2022/09/24 04:26:22;;;;;;;7.55;7.05;;;;;;;;;;5052364;28;24423;-46
2022/09/24 04:28:49;;;;;;;8.30;7.70;;;;;;;;;;5061136;28;24960;-46
2022/09/24 04:31:14;;;;;;;8.40;7.80;;;;;;;;;;5057756;28;24422;-46
2022/09/24 04:33:39;;;;;;;7.70;7.10;;;;;;;;;;5051299;28;24415;-46
2022/09/24 04:36:04;;;;;;;7.90;7.40;;;;;;;;;;5050492;28;24439;-46
2022/09/24 04:38:29;;;;;;;9.27;8.60;;;;;;;;;;5064047;28;25228;-47
2022/09/24 04:41:03;;;;;;;7.80;7.30;;;;;;;;;;5062039;28;24423;-47
2022/09/24 04:43:28;;;;;;;8.23;7.63;;;;;;;;;;5055011;28;24422;-46
2022/09/24 04:45:55;;;;;;;8.25;7.65;;;;;;;;;;5048560;28;24391;-47
2022/09/24 04:48:20;;;;;;;8.23;7.70;;;;;;;;;;5065125;28;24445;-46
2022/09/24 04:50:45;;;;;;;8.07;7.47;;;;;;;;;;5061169;28;24983;-46
2022/09/24 04:53:10;;;;;;;7.77;7.27;;;;;;;;;;5064151;28;24476;-47
2022/09/24 04:55:36;;;;;;;9.20;8.60;;;;;;;;;;5061481;28;24492;-46
2022/09/24 04:58:01;;;;;;;8.73;8.13;;;;;;;;;;5064758;28;25065;-46
2022/09/24 05:00:26;;;;;;;8.20;7.70;;;;;;;;;;5064537;28;24427;-51
2022/09/24 05:02:55;;;;;;;8.02;7.43;;;;;;;;;;5065749;28;24484;-46
2022/09/24 05:05:20;;;;;;;8.00;7.50;;;;;;;;;;5061684;28;24431;-47
2022/09/24 05:07:45;;;;;;;8.73;8.13;;;;;;;;;;5057505;28;24430;-46
2022/09/24 05:10:10;;;;;;;7.78;7.28;;;;;;;;;;5060090;28;24430;-48
2022/09/24 05:12:35;;;;;;;7.83;7.33;;;;;;;;;;5052275;28;25028;-46
2022/09/24 05:15:02;;;;;;;8.20;7.60;;;;;;;;;;5052345;28;24980;-46
2022/09/24 05:17:27;;;;;;;8.15;7.55;;;;;;;;;;5058887;28;25065;-44
2022/09/24 05:19:52;;;;;;;8.10;7.50;;;;;;;;;;5059043;28;24470;-46
2022/09/24 05:22:18;;;;;;;8.45;7.85;;;;;;;;;;5055483;28;24849;-46
2022/09/24 05:24:43;;;;;;;8.23;7.67;;;;;;;;;;5059254;28;24419;-46
2022/09/24 05:27:08;;;;;;;8.35;7.75;;;;;;;;;;5060326;28;24426;-45
2022/09/24 05:29:34;;;;;;;8.80;8.20;;;;;;;;;;5060944;28;24813;-46
2022/09/24 05:32:02;;;;;;;8.97;8.27;;;;;;;;;;5061883;28;24458;-45
2022/09/24 05:34:29;;;;;;;8.50;7.90;;;;;;;;;;5063824;28;24430;-48
2022/09/24 05:36:54;;;;;;;8.15;7.55;;;;;;;;;;5064245;28;24972;-47
2022/09/24 05:39:19;;;;;;;9.23;8.52;;;;;;;;;;5084031;28;24484;-46
2022/09/24 05:41:44;;;;;;;7.80;7.20;;;;;;;;;;5071231;28;25630;-47
2022/09/24 05:44:10;;;;;;;7.90;7.30;;;;;;;;;;5064698;28;24395;-46
2022/09/24 05:46:35;;;;;;;8.23;7.63;;;;;;;;;;5065860;28;24434;-48
2022/09/24 05:49:00;;;;;;;8.50;7.90;;;;;;;;;;5064801;28;25133;-46
2022/09/24 05:51:25;;;;;;;8.55;7.95;;;;;;;;;;5068013;28;24505;-47
2022/09/24 05:53:50;;;;;;;7.63;7.10;;;;;;;;;;5063966;28;24821;-46
2022/09/24 05:56:16;;;;;;;9.10;8.40;;;;;;;;;;5067428;28;24435;-48
2022/09/24 05:58:41;;;;;;;8.30;7.70;;;;;;;;;;5052783;28;24455;-46
2022/09/24 06:01:07;;;;;;;7.85;7.30;;;;;;;;;;5064497;28;24458;-47
2022/09/24 06:03:32;;;;;;;7.80;7.30;;;;;;;;;;5063263;28;24474;-46
2022/09/24 06:06:01;;;;;;;8.48;7.88;;;;;;;;;;5063910;28;24522;-47
2022/09/24 06:08:26;;;;;;;7.80;7.30;;;;;;;;;;5052930;28;24985;-47
2022/09/24 06:10:52;;;;;;;7.70;7.20;;;;;;;;;;5055975;28;24823;-47
2022/09/24 06:13:18;;;;;;;8.53;7.93;;;;;;;;;;5063377;28;25227;-47
2022/09/24 06:15:43;;;;;;;7.88;7.28;;;;;;;;;;5061585;28;24462;-46
2022/09/24 06:18:09;;;;;;;8.07;7.50;;;;;;;;;;5060007;28;24801;-46
2022/09/24 06:20:34;;;;;;;8.73;8.10;;;;;;;;;;5053852;28;24835;-48
2022/09/24 06:23:01;;;;;;;8.40;7.80;;;;;;;;;;5056126;28;24968;-47
2022/09/24 06:25:26;;;;;;;8.25;7.65;;;;;;;;;;5057208;28;24431;-47
2022/09/24 06:27:59;;;;;;;7.80;7.10;;;;;;;;;;5063361;28;24441;-47
2022/09/24 06:30:26;;;;;;;7.00;6.50;;;;;;;;;;5063224;28;24514;-47
2022/09/24 06:32:51;;;;;;;9.00;8.30;;;;;;;;;;5071913;28;24426;-47
2022/09/24 06:35:16;;;;;;;8.60;8.00;;;;;;;;;;5074565;28;24426;-46
2022/09/24 06:37:42;;;;;;;7.80;7.20;;;;;;;;;;5057973;28;24427;-47
2022/09/24 06:40:07;;;;;;;7.00;6.50;;;;;;;;;;5063354;28;24487;-47
2022/09/24 06:42:32;;;;;;;7.90;7.30;;;;;;;;;;5058934;28;24526;-48
2022/09/24 06:44:58;;;;;;;7.82;7.22;;;;;;;;;;5060238;28;24840;-47
2022/09/24 06:47:23;;;;;;;7.20;6.60;;;;;;;;;;5064241;28;24447;-47
2022/09/24 06:49:49;;;;;;;8.67;8.07;;;;;;;;;;5064062;28;24542;-47
2022/09/24 06:52:15;;;;;;;8.35;7.75;;;;;;;;;;5058585;28;24422;-46
2022/09/24 06:54:40;;;;;;;7.50;6.90;;;;;;;;;;5056142;28;24458;-47
2022/09/24 06:57:05;;;;;;;7.00;6.50;;;;;;;;;;5063119;28;24488;-47
2022/09/24 06:59:30;;;;;;;7.80;7.20;;;;;;;;;;5059214;28;25061;-46
2022/09/24 07:01:57;;;;;;;9.02;8.30;;;;;;;;;;5055132;28;24525;-46
2022/09/24 07:04:22;;;;;;;8.70;8.00;;;;;;;;;;5059446;28;24517;-47
2022/09/24 07:09:30;;;;;;;7.32;6.82;;;;;;;;;;5054540;28;24406;-46
2022/09/24 07:11:57;;;;;;;8.20;7.50;;;;;;;;;;5056282;28;24813;-46
2022/09/24 07:14:22;;;;;;;7.90;7.40;;;;;;;;;;5062811;28;24407;-46
2022/09/24 07:16:47;;;;;;;8.15;7.55;;;;;;;;;;5058775;28;24492;-47
2022/09/24 07:19:12;;;;;;;8.13;7.53;;;;;;;;;;5059668;28;24427;-46
2022/09/24 07:21:38;;;;;;;7.97;7.38;;;;;;;;;;5062053;28;24565;-46
2022/09/24 07:24:03;;;;;;;8.10;7.50;;;;;;;;;;5059559;28;24519;-47
2022/09/24 07:26:28;;;;;;;9.03;8.33;;;;;;;;;;5061351;28;24430;-46
2022/09/24 07:28:53;;;;;;;8.10;7.50;;;;;;;;;;5062972;28;24510;-46
2022/09/24 07:31:18;;;;;;;8.05;7.45;;;;;;;;;;5064451;28;25111;-47
2022/09/24 07:33:43;;;;;;;7.88;7.28;;;;;;;;;;5056341;28;24715;-46
2022/09/24 07:36:09;;;;;;;8.63;7.93;;;;;;;;;;5060811;28;24563;-46
2022/09/24 07:38:35;;;;;;;6.60;6.20;;;;;;;;;;5056560;28;24438;-47
2022/09/24 07:41:00;;;;;;;6.60;6.10;;;;;;;;;;5065993;28;24506;-47
2022/09/24 07:43:27;;;;;;;6.97;6.47;;;;;;;;;;5064490;28;24893;-47
2022/09/24 07:45:54;;;;;;;7.90;7.30;;;;;;;;;;5062808;28;24495;-48
2022/09/24 07:48:19;;;;;;;6.60;6.10;;;;;;;;;;5065171;28;24438;-47
2022/09/24 07:50:44;;;;;;;8.63;7.93;;;;;;;;;;5058648;28;24456;-47
2022/09/24 07:53:11;;;;;;;8.60;8.00;;;;;;;;;;5062772;28;24431;-47
2022/09/24 07:55:39;;;;;;;7.57;6.97;;;;;;;;;;5062734;28;24797;-47
2022/09/24 07:58:05;;;;;;;9.93;9.23;;;;;;;;;;5061076;28;24422;-47
2022/09/24 08:00:30;;;;;;;8.47;7.87;;;;;;;;;;5063930;28;24433;-46
2022/09/24 08:02:55;;;;;;;7.10;6.50;;;;;;;;;;5064526;28;24565;-46
2022/09/24 08:05:20;;;;;;;7.90;7.30;;;;;;;;;;5064628;28;24467;-47
2022/09/24 08:07:52;;;;;;;8.00;7.40;;;;;;;;;;5065839;28;24438;-47
2022/09/24 08:10:18;;;;;;;7.07;6.57;;;;;;;;;;5064452;28;25038;-47
2022/09/24 08:12:43;;;;;;;7.90;7.40;;;;;;;;;;5066223;28;24562;-47
2022/09/24 08:15:08;;;;;;;7.32;6.82;;;;;;;;;;5065094;28;24869;-47
2022/09/24 08:17:33;;;;;;;8.23;7.57;;;;;;;;;;5064643;28;24849;-46
2022/09/24 08:19:58;;;;;;;7.82;7.22;;;;;;;;;;5063120;28;24421;-46
2022/09/24 08:22:25;;;;;;;7.33;6.77;;;;;;;;;;5054533;28;24676;-46
2022/09/24 08:24:50;;;;;;;7.22;6.72;;;;;;;;;;5064888;28;24498;-48
2022/09/24 08:27:16;;;;;;;8.03;7.43;;;;;;;;;;5064465;28;24573;-46
2022/09/24 08:29:41;;;;;;;7.00;6.50;;;;;;;;;;5062422;28;24471;-47
2022/09/24 08:32:06;;;;;;;8.35;7.75;;;;;;;;;;5064413;28;25207;-46
2022/09/24 08:34:37;;;;;;;7.25;6.75;;;;;;;;;;5059287;28;24430;-47
2022/09/24 08:37:02;;;;;;;7.53;6.93;;;;;;;;;;5055027;28;24423;-47
2022/09/24 08:39:28;;;;;;;6.80;6.30;;;;;;;;;;5056017;28;24437;-46
2022/09/24 08:41:59;;;;;;;7.20;6.70;;;;;;;;;;5046685;28;24395;-46
2022/09/24 08:47:43;;;;;;;7.78;7.28;;;;;;;;;;5050668;28;25051;-46
2022/09/24 08:50:14;;;;;;;8.20;7.50;;;;;;;;;;5062140;28;24442;-47
2022/09/24 08:52:42;;;;;;;8.20;7.60;;;;;;;;;;5064024;28;24986;-47
2022/09/24 08:55:12;;;;;;;7.38;6.78;;;;;;;;;;5060745;28;24488;-46
2022/09/24 08:57:41;;;;;;;7.57;6.97;;;;;;;;;;5059587;28;24984;-47
2022/09/24 09:00:12;;;;;;;7.78;7.18;;;;;;;;;;5060608;28;24487;-47
2022/09/24 09:02:37;;;;;;;7.57;6.97;;;;;;;;;;5064803;28;24447;-46
2022/09/24 09:05:05;;;;;;;7.50;6.90;;;;;;;;;;5062124;28;24529;-46
2022/09/24 09:07:30;;;;;;;6.50;6.00;;;;;;;;;;5055037;28;24431;-47
2022/09/24 09:10:06;;;;;;;7.13;6.63;;;;;;;;;;5062406;28;24488;-47
2022/09/24 09:12:37;;;;;;;6.45;5.95;;;;;;;;;;5059201;28;24411;-46
2022/09/24 09:15:05;;;;;;;6.25;5.85;;;;;;;;;;5064103;28;24597;-46
2022/09/24 09:17:36;;;;;;;7.50;6.90;;;;;;;;;;5064114;28;24410;-48
2022/09/24 09:20:05;;;;;;;8.60;7.80;;;;;;;;;;5065385;28;24468;-47
2022/09/24 09:22:34;;;;;;;7.70;7.10;;;;;;;;;;5055622;28;24403;-47
2022/09/24 09:25:11;;;;;;;7.10;6.57;;;;;;;;;;5049430;28;24462;-47
2022/09/24 09:27:37;;;;;;;6.50;6.00;;;;;;;;;;5056388;28;24422;-47
2022/09/24 09:30:03;;;;;;;7.93;7.30;;;;;;;;;;5066297;28;24948;-47
2022/09/24 09:32:47;;;;;;;6.68;6.13;;;;;;;;;;5065609;28;24972;-47
2022/09/24 09:35:12;;;;;;;7.25;6.75;;;;;;;;;;5066347;28;24452;-48
2022/09/24 09:37:56;;;;;;;7.17;6.57;;;;;;;;;;5065553;28;24892;-47
2022/09/24 09:40:36;;;;;;;7.30;6.72;;;;;;;;;;5054436;28;24451;-47
2022/09/24 09:43:04;;;;;;;8.17;7.57;;;;;;;;;;5058531;28;24825;-47
2022/09/24 09:45:32;;;;;;;7.85;7.30;;;;;;;;;;5062432;28;24419;-47
2022/09/24 09:47:58;;;;;;;7.00;6.50;;;;;;;;;;5064098;28;24431;-46
2022/09/24 09:50:39;;;;;;;6.80;6.20;;;;;;;;;;5062839;28;24499;-47
2022/09/24 09:53:04;;;;;;;6.00;5.60;;;;;;;;;;5064389;28;24418;-47
2022/09/24 09:55:31;;;;;;;7.63;7.07;;;;;;;;;;5062950;28;24419;-47
2022/09/24 09:58:08;;;;;;;7.13;6.60;;;;;;;;;;5063104;28;24526;-47
2022/09/24 10:00:33;;;;;;;7.07;6.53;;;;;;;;;;5055311;28;24453;-47
2022/09/24 10:02:59;;;;;;;7.63;7.03;;;;;;;;;;5063020;28;24415;-48
2022/09/24 10:05:27;;;;;;;6.43;5.83;;;;;;;;;;5050121;28;24993;-47
2022/09/24 10:07:53;;;;;;;6.40;6.00;;;;;;;;;;5060439;28;24522;-48
2022/09/24 10:10:25;;;;;;;7.50;6.90;;;;;;;;;;5065734;28;25009;-48
2022/09/24 10:13:11;;;;;;;6.97;6.47;;;;;;;;;;5063279;28;24398;-48
2022/09/24 10:15:48;;;;;;;6.80;6.30;;;;;;;;;;5049367;28;24465;-47
2022/09/24 10:18:13;;;;;;;6.90;6.40;;;;;;;;;;5049314;28;24410;-47
2022/09/24 10:20:39;;;;;;;5.90;5.50;;;;;;;;;;5059101;28;25027;-47
2022/09/24 10:23:06;;;;;;;7.00;6.50;;;;;;;;;;5069306;28;24742;-46
2022/09/24 10:25:31;;;;;;;5.95;5.55;;;;;;;;;;5066753;28;24427;-47
2022/09/24 10:30:55;;;;;;;6.00;5.50;;;;;;;;;;5057689;28;25042;-47
2022/09/24 10:33:21;;;;;;;5.60;5.20;;;;;;;;;;5062894;28;24423;-49
2022/09/24 10:35:46;;;;;;;6.10;5.68;;;;;;;;;;5068962;28;24935;-46
2022/09/24 10:38:16;;;;;;;4.97;4.57;;;;;;;;;;5069419;28;24395;-47
2022/09/24 10:40:42;;;;;;;5.47;5.07;;;;;;;;;;5069011;28;24952;-48
2022/09/24 10:43:14;;;;;;;5.60;5.10;;;;;;;;;;5067202;28;24435;-47
2022/09/24 10:45:49;;;;;;;6.45;5.95;;;;;;;;;;5063202;28;24819;-46
2022/09/24 10:48:23;;;;;;;5.90;5.50;;;;;;;;;;5048459;28;25190;-48
2022/09/24 10:51:00;;;;;;;5.00;4.70;;;;;;;;;;5059874;28;24403;-48
2022/09/24 10:53:29;;;;;;;4.43;4.13;;;;;;;;;;5068885;28;24816;-48
2022/09/24 10:56:02;;;;;;;5.35;4.95;;;;;;;;;;5068785;28;24977;-48
2022/09/24 10:58:40;;;;;;;5.25;4.85;;;;;;;;;;5066832;28;24433;-47
2022/09/24 11:01:08;;;;;;;5.10;4.70;;;;;;;;;;5068568;28;24964;-47
2022/09/24 11:03:42;;;;;;;4.80;4.45;;;;;;;;;;5067548;28;24510;-47
2022/09/24 11:06:24;;;;;;;4.57;4.28;;;;;;;;;;5054386;28;24518;-47
2022/09/24 11:09:06;;;;;;;4.30;4.00;;;;;;;;;;5063834;28;24442;-47
2022/09/24 11:11:34;;;;;;;4.00;3.70;;;;;;;;;;5058848;28;25047;-48
2022/09/24 11:14:12;;;;;;;3.60;3.40;;;;;;;;;;5068328;28;24937;-48
2022/09/24 11:16:42;;;;;;;4.10;3.80;;;;;;;;;;5062352;28;24403;-47
2022/09/24 11:19:13;;;;;;;4.50;4.20;;;;;;;;;;5060411;28;24438;-48
2022/09/24 11:21:57;;;;;;;4.10;3.90;;;;;;;;;;5064011;28;24906;-48
2022/09/24 11:24:32;;;;;;;4.37;4.07;;;;;;;;;;5055384;28;24561;-48
2022/09/24 11:26:57;;;;;;;3.72;3.33;;;;;;;;;;5062941;28;24521;-48
2022/09/24 11:29:43;;;;;;;4.55;4.25;;;;;;;;;;5063998;28;24508;-48
2022/09/24 11:32:15;;;;;;;4.43;4.03;;;;;;;;;;5065308;28;24422;-48
2022/09/24 11:34:59;;;;;;;4.38;4.07;;;;;;;;;;5064598;28;24438;-48
2022/09/24 11:37:43;;;;;;;4.30;4.00;;;;;;;;;;5065261;28;24429;-47
2022/09/24 11:40:19;;;;;;;4.80;4.50;;;;;;;;;;5064789;28;24983;-47
2022/09/24 11:42:44;;;;;;;4.10;3.80;;;;;;;;;;5065300;28;24433;-46
2022/09/24 11:45:27;;;;;;;4.35;4.05;;;;;;;;;;5063586;28;24415;-47
2022/09/24 11:48:13;;;;;;;4.57;4.28;;;;;;;;;;5063042;28;24430;-47
2022/09/24 11:50:47;;;;;;;3.80;3.60;;;;;;;;;;5063305;28;24525;-47
2022/09/24 11:53:30;;;;;;;4.70;4.40;;;;;;;;;;5062681;28;24843;-47
2022/09/24 11:56:01;;;;;;;4.13;3.83;;;;;;;;;;5061680;28;24511;-48
2022/09/24 11:58:28;;;;;;;3.90;3.60;;;;;;;;;;5060686;28;24518;-47
2022/09/24 12:01:01;;;;;;;4.80;4.40;;;;;;;;;;5050653;28;24839;-47
2022/09/24 12:03:33;;;;;;;4.10;3.80;;;;;;;;;;5054888;28;24429;-46
2022/09/24 12:06:05;;;;;;;3.67;3.37;;;;;;;;;;5054507;28;24522;-47
2022/09/24 12:08:30;;;;;;;4.72;4.43;;;;;;;;;;5057436;28;24474;-47
2022/09/24 12:11:29;;;;;;;4.18;3.88;;;;;;;;;;5054410;28;24489;-47
2022/09/24 12:13:58;;;;;;;4.80;4.50;;;;;;;;;;5023083;28;24458;-48
2022/09/24 12:16:32;;;;;;;4.57;4.28;;;;;;;;;;5059675;28;24423;-47
2022/09/24 12:19:16;;;;;;;4.18;3.78;;;;;;;;;;5054785;28;24431;-48
2022/09/24 12:21:42;;;;;;;4.10;3.70;;;;;;;;;;5055068;28;24419;-47
2022/09/24 12:24:16;;;;;;;4.60;4.30;;;;;;;;;;5057598;28;24534;-48
2022/09/24 12:26:54;;;;;;;5.20;4.80;;;;;;;;;;5056334;28;24419;-59
2022/09/24 12:35:07;;;;;;;4.20;3.90;;;;;;;;;;5062427;28;24465;-48
2022/09/24 12:37:37;;;;;;;4.17;3.97;;;;;;;;;;5061962;28;24410;-47
2022/09/24 12:40:12;;;;;;;4.20;3.90;;;;;;;;;;5058769;28;24419;-47
2022/09/24 12:42:43;;;;;;;4.63;4.22;;;;;;;;;;5062373;28;24429;-48
2022/09/24 12:45:13;;;;;;;3.50;3.30;;;;;;;;;;5064326;28;24394;-47
2022/09/24 12:47:50;;;;;;;4.10;3.90;;;;;;;;;;5056060;28;24427;-46
2022/09/24 12:50:19;;;;;;;4.30;4.00;;;;;;;;;;5062726;28;24565;-47
2022/09/24 12:52:45;;;;;;;4.27;3.97;;;;;;;;;;5064837;28;24460;-47
2022/09/24 12:55:19;;;;;;;4.40;4.10;;;;;;;;;;5065867;28;24482;-47
2022/09/24 12:57:54;;;;;;;4.10;3.90;;;;;;;;;;5066729;28;24399;-47
2022/09/24 13:00:35;;;;;;;3.90;3.60;;;;;;;;;;5061656;28;24426;-48
2022/09/24 13:03:01;;;;;;;4.43;4.18;;;;;;;;;;5051563;28;24523;-48
2022/09/24 13:05:31;;;;;;;3.70;3.50;;;;;;;;;;5062307;28;24480;-47
2022/09/24 13:08:22;;;;;;;3.80;3.60;;;;;;;;;;5061367;28;24470;-47
2022/09/24 13:10:58;;;;;;;4.20;3.90;;;;;;;;;;5062510;28;24419;-47
2022/09/24 13:13:27;;;;;;;3.70;3.50;;;;;;;;;;5053827;28;24473;-48
2022/09/24 13:16:01;;;;;;;3.90;3.60;;;;;;;;;;5062881;28;24423;-48
2022/09/24 13:18:26;;;;;;;4.00;3.70;;;;;;;;;;5064684;28;24430;-47
2022/09/24 13:20:56;;;;;;;4.57;4.27;;;;;;;;;;5060229;28;25000;-47
2022/09/24 13:23:21;;;;;;;4.40;4.10;;;;;;;;;;5063570;28;24484;-48
2022/09/24 13:25:55;;;;;;;4.82;4.43;;;;;;;;;;5063275;28;24431;-47
2022/09/24 13:28:24;;;;;;;4.50;4.13;;;;;;;;;;5063953;28;24429;-48
2022/09/24 13:30:52;;;;;;;3.83;3.63;;;;;;;;;;5059605;28;24488;-47
2022/09/24 13:33:24;;;;;;;3.47;3.28;;;;;;;;;;5047070;28;24469;-47
2022/09/24 13:36:01;;;;;;;4.10;3.80;;;;;;;;;;5055454;28;24524;-48
2022/09/24 13:38:29;;;;;;;3.40;3.20;;;;;;;;;;5055596;28;24415;-48
2022/09/24 13:41:04;;;;;;;3.40;3.20;;;;;;;;;;5053858;28;24457;-48
2022/09/24 13:43:34;;;;;;;3.60;3.40;;;;;;;;;;5055833;28;24433;-48
2022/09/24 13:46:00;;;;;;;3.80;3.60;;;;;;;;;;5061405;28;25065;-52
2022/09/24 13:48:31;;;;;;;3.40;3.20;;;;;;;;;;5067270;28;24435;-48
2022/09/24 13:50:57;;;;;;;3.80;3.50;;;;;;;;;;5065723;28;24438;-48
2022/09/24 13:53:30;;;;;;;3.80;3.50;;;;;;;;;;5063532;28;24427;-48
2022/09/24 13:55:57;;;;;;;3.20;3.00;;;;;;;;;;5066991;28;24479;-47
2022/09/24 13:58:30;;;;;;;3.30;3.10;;;;;;;;;;5067432;28;24418;-48
2022/09/24 14:00:58;;;;;;;3.83;3.53;;;;;;;;;;5066532;28;24426;-48
2022/09/24 14:03:25;;;;;;;3.30;3.10;;;;;;;;;;5063131;28;24418;-46
2022/09/24 14:05:51;;;;;;;3.10;2.90;;;;;;;;;;5057529;28;24420;-48
2022/09/24 14:08:18;;;;;;;3.40;3.10;;;;;;;;;;5065978;28;24433;-48
2022/09/24 14:10:47;;;;;;;3.37;3.17;;;;;;;;;;5067599;28;24422;-47
2022/09/24 14:13:20;;;;;;;3.40;3.10;;;;;;;;;;5064729;28;25172;-47
2022/09/24 14:15:53;;;;;;;3.47;3.28;;;;;;;;;;5067650;28;24426;-49
2022/09/24 14:18:18;;;;;;;3.10;2.90;;;;;;;;;;5066174;28;24418;-46
2022/09/24 14:20:43;;;;;;;3.70;3.40;;;;;;;;;;5065920;28;25007;-48
2022/09/24 14:23:14;;;;;;;3.83;3.63;;;;;;;;;;5065452;28;25004;-47
2022/09/24 14:25:39;;;;;;;3.92;3.72;;;;;;;;;;5067472;28;24430;-47
2022/09/24 14:28:04;;;;;;;3.80;3.60;;;;;;;;;;5065221;28;25018;-47
2022/09/24 14:30:31;;;;;;;4.20;3.83;;;;;;;;;;5063473;28;24422;-47
2022/09/24 14:32:58;;;;;;;3.70;3.50;;;;;;;;;;5064649;28;25095;-47
2022/09/24 14:35:23;;;;;;;3.72;3.53;;;;;;;;;;5066946;28;24439;-47
2022/09/24 14:37:50;;;;;;;3.45;3.25;;;;;;;;;;5064944;28;24468;-47
2022/09/24 14:40:16;;;;;;;4.00;3.70;;;;;;;;;;5060549;28;24833;-48
2022/09/24 14:42:45;;;;;;;3.40;3.20;;;;;;;;;;5060496;28;24494;-48
2022/09/24 14:45:19;;;;;;;3.80;3.50;;;;;;;;;;5054650;28;24426;-48
2022/09/24 14:47:44;;;;;;;3.70;3.40;;;;;;;;;;5065746;28;24521;-48
2022/09/24 14:50:41;;;;;;;3.63;3.40;;;;;;;;;;5065255;28;24577;-48
2022/09/24 14:53:19;;;;;;;4.60;4.20;;;;;;;;;;5019431;28;24964;-47
2022/09/24 14:55:45;;;;;;;4.20;3.90;;;;;;;;;;5066610;28;24977;-48
2022/09/24 14:58:28;;;;;;;4.83;4.53;;;;;;;;;;5062043;28;24503;-48
2022/09/24 15:00:58;;;;;;;4.43;4.13;;;;;;;;;;5064789;28;24495;-48
2022/09/24 15:03:31;;;;;;;5.00;4.70;;;;;;;;;;5066022;28;24985;-48
2022/09/24 15:06:12;;;;;;;5.82;5.43;;;;;;;;;;5067990;28;24487;-47
2022/09/24 15:08:37;;;;;;;5.67;5.27;;;;;;;;;;5068021;28;24506;-48
2022/09/24 15:11:03;;;;;;;5.18;4.88;;;;;;;;;;5064857;28;24469;-48